createdAt,value
2023-07-07T00:00:09.441Z,53.76
2023-07-07T00:01:09.425Z,58.78
2023-07-07T00:02:09.498Z,49.44
2023-07-07T00:03:09.448Z,49.55
2023-07-07T00:04:09.448Z,52.97
2023-07-07T00:05:09.399Z,55.48
2023-07-07T00:06:09.384Z,58.83
2023-07-07T00:07:09.390Z,52.71
2023-07-07T00:08:09.402Z,51.18
2023-07-07T00:09:09.370Z,50.43
2023-07-07T00:10:09.383Z,50.20
2023-07-07T00:11:09.345Z,50.12
2023-07-07T00:12:09.336Z,55.45
2023-07-07T00:13:09.347Z,51.89
2023-07-07T00:14:09.323Z,48.65
2023-07-07T00:15:09.305Z,50.59
2023-07-07T00:16:09.337Z,59.54
2023-07-07T00:17:09.296Z,58.22
2023-07-07T00:18:09.291Z,55.69
2023-07-07T00:20:59.589Z,56.13
2023-07-07T00:21:59.248Z,56.61
2023-07-07T00:22:59.208Z,51.71
2023-07-07T00:23:59.201Z,51.02
2023-07-07T00:24:59.199Z,52.60
2023-07-07T00:25:59.196Z,60.14
2023-07-07T00:26:59.206Z,63.67
2023-07-07T00:27:59.168Z,53.59
2023-07-07T00:29:00.292Z,55.27
2023-07-07T00:30:00.270Z,55.82
2023-07-07T00:31:00.614Z,54.21
2023-07-07T00:32:00.251Z,49.86
2023-07-07T00:33:00.264Z,52.76
2023-07-07T00:34:00.237Z,57.07
2023-07-07T00:35:00.244Z,58.14
2023-07-07T00:36:00.197Z,48.90
2023-07-07T00:37:00.226Z,49.17
2023-07-07T00:38:00.199Z,51.40
2023-07-07T00:39:00.193Z,51.64
2023-07-07T00:40:00.227Z,57.11
2023-07-07T00:41:00.283Z,53.24
2023-07-07T00:42:00.164Z,55.19
2023-07-07T00:43:00.145Z,56.39
2023-07-07T00:44:00.164Z,50.06
2023-07-07T00:45:00.126Z,50.77
2023-07-07T00:46:00.161Z,49.03
2023-07-07T00:47:00.155Z,47.70
2023-07-07T00:48:00.207Z,53.36
2023-07-07T00:49:00.104Z,52.13
2023-07-07T00:50:00.138Z,49.27
2023-07-07T00:51:00.262Z,51.91
2023-07-07T00:52:00.102Z,57.55
2023-07-07T00:53:00.059Z,47.09
2023-07-07T00:54:00.057Z,52.20
2023-07-07T00:55:00.062Z,57.97
2023-07-07T00:56:00.054Z,51.98
2023-07-07T00:57:00.031Z,49.25
2023-07-07T00:58:00.017Z,47.86
2023-07-07T00:59:00.010Z,52.44
2023-07-07T01:00:00.042Z,55.85
2023-07-07T01:01:00.320Z,62.64
2023-07-07T01:02:00.094Z,53.93
2023-07-07T01:03:00.029Z,51.41
2023-07-07T01:04:00.024Z,57.69
2023-07-07T01:04:59.983Z,50.44
2023-07-07T01:05:59.966Z,58.29
2023-07-07T01:06:59.973Z,58.23
2023-07-07T01:07:59.952Z,58.42
2023-07-07T01:08:59.956Z,60.80
2023-07-07T01:10:00.634Z,50.17
2023-07-07T01:11:00.926Z,54.97
2023-07-07T01:11:59.934Z,52.48
2023-07-07T01:12:59.889Z,57.68
2023-07-07T01:13:59.937Z,53.86
2023-07-07T01:14:59.892Z,51.30
2023-07-07T01:15:59.930Z,58.70
2023-07-07T01:16:59.871Z,53.18
2023-07-07T01:17:59.889Z,54.93
2023-07-07T01:18:59.888Z,52.77
2023-07-07T01:19:59.863Z,60.61
2023-07-07T01:20:59.848Z,55.22
2023-07-07T01:21:59.848Z,57.12
2023-07-07T01:22:59.824Z,47.49
2023-07-07T01:23:59.812Z,53.48
2023-07-07T01:24:59.810Z,54.38
2023-07-07T01:25:59.801Z,62.79
2023-07-07T01:26:59.815Z,55.55
2023-07-07T01:27:59.802Z,55.07
2023-07-07T01:28:59.833Z,47.83
2023-07-07T01:29:59.782Z,51.53
2023-07-07T01:30:59.996Z,47.35
2023-07-07T01:31:59.843Z,58.97
2023-07-07T01:32:59.809Z,56.03
2023-07-07T01:33:59.763Z,50.25
2023-07-07T01:34:59.726Z,61.57
2023-07-07T01:35:59.726Z,53.66
2023-07-07T01:36:59.721Z,54.96
2023-07-07T01:37:59.715Z,44.38
2023-07-07T01:38:59.693Z,50.56
2023-07-07T01:39:59.689Z,60.71
2023-07-07T01:41:00.679Z,58.21
2023-07-07T01:41:59.669Z,45.90
2023-07-07T01:43:00.621Z,50.52
2023-07-07T01:43:59.657Z,49.11
2023-07-07T01:44:59.707Z,50.59
2023-07-07T01:45:59.660Z,57.62
2023-07-07T01:46:59.632Z,50.78
2023-07-07T01:47:59.721Z,50.26
2023-07-07T01:48:59.609Z,51.65
2023-07-07T01:49:59.644Z,51.21
2023-07-07T01:50:59.849Z,50.37
2023-07-07T01:51:59.612Z,58.45
2023-07-07T01:52:59.585Z,49.16
2023-07-07T01:53:59.589Z,51.91
2023-07-07T01:54:59.619Z,59.43
2023-07-07T01:55:59.543Z,55.78
2023-07-07T01:56:59.548Z,51.76
2023-07-07T01:57:59.536Z,55.99
2023-07-07T01:59:00.141Z,53.95
2023-07-07T01:59:59.513Z,49.26
2023-07-07T02:00:59.617Z,44.72
2023-07-07T02:01:59.565Z,49.84
2023-07-07T02:02:59.543Z,53.98
2023-07-07T02:03:59.508Z,50.97
2023-07-07T02:04:59.542Z,54.61
2023-07-07T02:05:59.484Z,57.76
2023-07-07T02:06:59.455Z,54.00
2023-07-07T02:07:59.644Z,57.32
2023-07-07T02:08:59.458Z,50.64
2023-07-07T02:09:59.473Z,48.60
2023-07-07T02:10:59.724Z,50.98
2023-07-07T02:11:59.419Z,55.31
2023-07-07T02:12:59.480Z,49.45
2023-07-07T02:13:59.480Z,51.09
2023-07-07T02:14:59.430Z,51.65
2023-07-07T02:15:59.457Z,54.20
2023-07-07T02:16:59.391Z,55.78
2023-07-07T02:17:59.471Z,51.37
2023-07-07T02:18:59.364Z,51.73
2023-07-07T02:19:59.370Z,58.67
2023-07-07T02:20:59.624Z,54.59
2023-07-07T02:21:59.382Z,53.97
2023-07-07T02:22:59.336Z,52.68
2023-07-07T02:23:59.323Z,56.59
2023-07-07T02:24:59.321Z,57.35
2023-07-07T02:25:59.301Z,51.51
2023-07-07T02:26:59.370Z,57.79
2023-07-07T02:27:59.311Z,51.45
2023-07-07T02:28:59.298Z,50.09
2023-07-07T02:29:59.275Z,55.94
2023-07-07T02:30:59.584Z,51.66
2023-07-07T02:31:59.372Z,52.58
2023-07-07T02:32:59.274Z,57.51
2023-07-07T02:33:59.251Z,50.74
2023-07-07T02:34:59.228Z,52.79
2023-07-07T02:35:59.230Z,53.41
2023-07-07T02:36:59.243Z,54.23
2023-07-07T02:37:59.212Z,56.14
2023-07-07T02:38:59.206Z,56.81
2023-07-07T02:39:59.197Z,58.30
2023-07-07T02:40:59.431Z,54.22
2023-07-07T02:41:59.187Z,59.89
2023-07-07T02:42:59.213Z,51.45
2023-07-07T02:43:59.184Z,51.24
2023-07-07T02:44:59.151Z,50.28
2023-07-07T02:45:59.170Z,49.84
2023-07-07T02:46:59.197Z,57.52
2023-07-07T02:47:59.189Z,52.99
2023-07-07T02:48:59.139Z,54.32
2023-07-07T02:49:59.127Z,56.65
2023-07-07T02:50:59.456Z,56.61
2023-07-07T02:51:59.099Z,56.94
2023-07-07T02:52:59.090Z,53.72
2023-07-07T02:53:59.081Z,55.53
2023-07-07T02:54:59.713Z,56.92
2023-07-07T02:55:59.057Z,58.57
2023-07-07T02:56:59.058Z,52.87
2023-07-07T02:57:59.046Z,53.78
2023-07-07T02:58:59.039Z,60.29
2023-07-07T02:59:59.027Z,57.33
2023-07-07T03:00:59.297Z,55.25
2023-07-07T03:01:59.015Z,59.72
2023-07-07T03:02:59.110Z,57.07
2023-07-07T03:03:59.131Z,56.74
2023-07-07T03:04:58.994Z,57.28
2023-07-07T03:05:58.994Z,58.50
2023-07-07T03:06:59.732Z,59.24
2023-07-07T03:07:59.001Z,54.05
2023-07-07T03:08:59.004Z,61.30
2023-07-07T03:09:59.647Z,59.47
2023-07-07T03:10:59.941Z,58.20
2023-07-07T03:11:58.961Z,61.67
2023-07-07T03:12:58.925Z,57.61
2023-07-07T03:13:58.980Z,54.82
2023-07-07T03:14:58.918Z,59.88
2023-07-07T03:15:58.899Z,58.18
2023-07-07T03:16:59.008Z,61.52
2023-07-07T03:17:58.934Z,59.23
2023-07-07T03:18:58.901Z,64.99
2023-07-07T03:19:59.916Z,65.93
2023-07-07T03:20:59.117Z,62.89
2023-07-07T03:21:58.860Z,56.20
2023-07-07T03:22:58.854Z,57.67
2023-07-07T03:23:58.894Z,59.08
2023-07-07T03:24:58.858Z,57.30
2023-07-07T03:25:58.911Z,59.16
2023-07-07T03:26:58.859Z,61.27
2023-07-07T03:27:58.857Z,59.14
2023-07-07T03:28:58.806Z,60.05
2023-07-07T03:29:58.833Z,57.35
2023-07-07T03:30:59.038Z,56.09
2023-07-07T03:31:58.795Z,61.01
2023-07-07T03:32:59.756Z,61.61
2023-07-07T03:33:58.764Z,62.92
2023-07-07T03:34:58.768Z,63.78
2023-07-07T03:35:58.748Z,63.03
2023-07-07T03:36:58.763Z,62.68
2023-07-07T03:37:58.748Z,65.81
2023-07-07T03:38:58.750Z,61.20
2023-07-07T03:39:58.731Z,58.64
2023-07-07T03:40:58.918Z,61.77
2023-07-07T03:41:58.716Z,59.82
2023-07-07T03:42:58.685Z,62.67
2023-07-07T03:43:58.689Z,61.13
2023-07-07T03:44:58.685Z,62.20
2023-07-07T03:45:58.677Z,62.88
2023-07-07T03:46:58.851Z,60.68
2023-07-07T03:47:58.685Z,60.49
2023-07-07T03:48:58.641Z,61.66
2023-07-07T03:49:58.631Z,62.65
2023-07-07T03:50:58.800Z,59.53
2023-07-07T03:51:58.626Z,59.29
2023-07-07T03:52:58.629Z,61.04
2023-07-07T03:53:58.603Z,63.38
2023-07-07T03:54:58.601Z,62.56
2023-07-07T03:55:58.592Z,61.65
2023-07-07T03:56:58.584Z,56.77
2023-07-07T03:57:58.581Z,60.83
2023-07-07T03:58:58.562Z,60.39
2023-07-07T03:59:58.558Z,62.25
2023-07-07T04:00:58.673Z,63.17
2023-07-07T04:01:59.524Z,62.06
2023-07-07T04:02:58.657Z,58.85
2023-07-07T04:03:58.826Z,62.09
2023-07-07T04:04:58.670Z,66.99
2023-07-07T04:05:58.514Z,64.19
2023-07-07T04:06:58.488Z,60.16
2023-07-07T04:07:59.501Z,60.94
2023-07-07T04:08:58.488Z,61.86
2023-07-07T04:09:58.477Z,60.26
2023-07-07T04:10:58.705Z,60.34
2023-07-07T04:11:58.498Z,59.34
2023-07-07T04:12:58.454Z,58.22
2023-07-07T04:13:58.502Z,63.13
2023-07-07T04:14:58.448Z,63.17
2023-07-07T04:15:58.452Z,57.15
2023-07-07T04:16:58.477Z,62.21
2023-07-07T04:17:58.456Z,62.78
2023-07-07T04:18:58.393Z,64.84
2023-07-07T04:19:58.410Z,64.91
2023-07-07T04:20:58.574Z,64.68
2023-07-07T04:21:58.397Z,62.48
2023-07-07T04:22:58.765Z,63.94
2023-07-07T04:23:58.365Z,61.54
2023-07-07T04:24:58.355Z,60.97
2023-07-07T04:25:58.348Z,63.58
2023-07-07T04:26:58.361Z,63.32
2023-07-07T04:27:58.345Z,59.91
2023-07-07T04:28:58.336Z,61.57
2023-07-07T04:29:58.322Z,61.52
2023-07-07T04:30:58.582Z,61.65
2023-07-07T04:31:58.359Z,62.77
2023-07-07T04:32:58.351Z,61.58
2023-07-07T04:33:58.295Z,59.67
2023-07-07T04:34:58.265Z,64.42
2023-07-07T04:35:59.303Z,66.42
2023-07-07T04:36:58.257Z,64.16
2023-07-07T04:37:58.288Z,64.31
2023-07-07T04:38:58.261Z,61.41
2023-07-07T04:39:58.235Z,61.27
2023-07-07T04:40:58.389Z,61.99
2023-07-07T04:41:58.211Z,62.78
2023-07-07T04:42:58.236Z,61.33
2023-07-07T04:43:58.231Z,64.13
2023-07-07T04:44:58.206Z,63.87
2023-07-07T04:45:58.199Z,60.48
2023-07-07T04:46:58.184Z,63.74
2023-07-07T04:47:58.209Z,60.79
2023-07-07T04:48:58.177Z,65.95
2023-07-07T04:49:58.195Z,67.97
2023-07-07T04:50:58.410Z,61.63
2023-07-07T04:51:58.215Z,60.42
2023-07-07T04:52:58.149Z,60.60
2023-07-07T04:53:58.139Z,64.40
2023-07-07T04:54:58.137Z,63.67
2023-07-07T04:55:58.162Z,62.90
2023-07-07T04:56:58.118Z,62.64
2023-07-07T04:57:58.105Z,59.77
2023-07-07T04:58:58.106Z,62.98
2023-07-07T04:59:58.093Z,61.96
2023-07-07T05:00:58.384Z,63.36
2023-07-07T05:01:58.152Z,63.46
2023-07-07T05:02:58.119Z,64.99
2023-07-07T05:03:58.151Z,65.37
2023-07-07T05:04:58.045Z,64.12
2023-07-07T05:05:58.095Z,64.16
2023-07-07T05:06:58.098Z,60.64
2023-07-07T05:07:58.014Z,64.00
2023-07-07T05:08:58.034Z,64.22
2023-07-07T05:09:58.005Z,64.87
2023-07-07T05:10:58.966Z,66.56
2023-07-07T05:11:59.762Z,63.24
2023-07-07T05:12:58.039Z,65.59
2023-07-07T05:13:58.141Z,63.54
2023-07-07T05:14:58.071Z,63.75
2023-07-07T05:15:57.996Z,61.63
2023-07-07T05:16:57.961Z,63.85
2023-07-07T05:18:00.369Z,62.68
2023-07-07T05:18:59.005Z,62.61
2023-07-07T05:19:58.689Z,64.77
2023-07-07T05:20:58.241Z,67.60
2023-07-07T05:21:57.922Z,64.67
2023-07-07T05:22:57.953Z,64.50
2023-07-07T05:23:57.919Z,64.54
2023-07-07T05:24:57.940Z,64.21
2023-07-07T05:25:57.906Z,64.42
2023-07-07T05:26:57.882Z,68.27
2023-07-07T05:27:57.941Z,66.89
2023-07-07T05:28:58.010Z,64.27
2023-07-07T05:29:57.881Z,63.77
2023-07-07T05:30:58.369Z,64.61
2023-07-07T05:31:57.882Z,66.75
2023-07-07T05:32:57.868Z,64.19
2023-07-07T05:33:57.870Z,63.22
2023-07-07T05:34:57.911Z,62.44
2023-07-07T05:35:57.844Z,63.62
2023-07-07T05:36:58.707Z,63.03
2023-07-07T05:37:57.850Z,64.99
2023-07-07T05:38:57.847Z,65.93
2023-07-07T05:39:57.828Z,66.26
2023-07-07T05:40:58.471Z,65.25
2023-07-07T05:41:57.797Z,62.20
2023-07-07T05:42:57.782Z,61.48
2023-07-07T05:43:57.783Z,63.30
2023-07-07T05:44:57.761Z,62.59
2023-07-07T05:45:58.237Z,65.20
2023-07-07T05:46:57.747Z,63.44
2023-07-07T05:47:58.855Z,72.06
2023-07-07T05:48:57.742Z,72.29
2023-07-07T05:49:57.750Z,68.77
2023-07-07T05:50:59.745Z,68.87
2023-07-07T05:51:57.731Z,64.68
2023-07-07T05:52:57.713Z,66.77
2023-07-07T05:53:57.781Z,66.92
2023-07-07T05:54:57.745Z,65.47
2023-07-07T05:55:57.697Z,62.66
2023-07-07T05:56:57.681Z,62.36
2023-07-07T05:57:57.691Z,66.84
2023-07-07T05:58:57.683Z,65.67
2023-07-07T05:59:58.296Z,64.92
2023-07-07T06:00:57.985Z,67.01
2023-07-07T06:01:58.346Z,64.27
2023-07-07T06:02:57.666Z,62.36
2023-07-07T06:03:57.683Z,62.60
2023-07-07T06:04:57.636Z,65.08
2023-07-07T06:05:57.619Z,64.33
2023-07-07T06:06:57.641Z,61.22
2023-07-07T06:07:57.600Z,63.34
2023-07-07T06:08:57.636Z,62.82
2023-07-07T06:09:57.614Z,66.07
2023-07-07T06:10:57.924Z,64.12
2023-07-07T06:11:57.586Z,61.68
2023-07-07T06:12:57.576Z,60.02
2023-07-07T06:13:57.618Z,61.79
2023-07-07T06:14:57.561Z,61.29
2023-07-07T06:15:58.365Z,61.16
2023-07-07T06:16:57.550Z,61.99
2023-07-07T06:17:59.138Z,65.70
2023-07-07T06:18:57.543Z,62.60
2023-07-07T06:19:57.520Z,63.56
2023-07-07T06:20:57.842Z,65.29
2023-07-07T06:21:57.515Z,63.41
2023-07-07T06:22:57.533Z,63.26
2023-07-07T06:23:57.501Z,62.76
2023-07-07T06:24:57.525Z,60.48
2023-07-07T06:25:57.497Z,62.19
2023-07-07T06:26:57.474Z,62.04
2023-07-07T06:27:57.492Z,61.67
2023-07-07T06:28:57.453Z,61.76
2023-07-07T06:29:57.469Z,62.32
2023-07-07T06:30:57.759Z,62.32
2023-07-07T06:31:57.482Z,61.08
2023-07-07T06:32:57.483Z,62.49
2023-07-07T06:33:57.463Z,61.36
2023-07-07T06:34:57.415Z,63.14
2023-07-07T06:35:57.416Z,62.94
2023-07-07T06:36:57.448Z,61.31
2023-07-07T06:37:57.411Z,62.09
2023-07-07T06:38:57.450Z,60.35
2023-07-07T06:39:57.393Z,63.34
2023-07-07T06:40:57.693Z,62.12
2023-07-07T06:41:57.372Z,62.38
2023-07-07T06:42:57.368Z,62.20
2023-07-07T06:43:57.832Z,60.23
2023-07-07T06:44:57.363Z,60.45
2023-07-07T06:45:57.377Z,59.66
2023-07-07T06:46:57.356Z,60.38
2023-07-07T06:47:57.378Z,60.06
2023-07-07T06:48:57.694Z,60.84
2023-07-07T06:49:58.316Z,61.96
2023-07-07T06:50:57.495Z,60.97
2023-07-07T06:51:57.388Z,61.48
2023-07-07T06:52:57.319Z,62.72
2023-07-07T06:53:57.293Z,62.15
2023-07-07T06:54:57.310Z,60.22
2023-07-07T06:55:57.283Z,61.54
2023-07-07T06:56:57.272Z,63.23
2023-07-07T06:57:57.285Z,61.51
2023-07-07T06:58:57.818Z,60.24
2023-07-07T06:59:57.284Z,61.85
2023-07-07T07:00:57.529Z,61.81
2023-07-07T07:01:57.260Z,61.70
2023-07-07T07:02:57.929Z,62.96
2023-07-07T07:03:57.369Z,61.04
2023-07-07T07:04:57.219Z,61.39
2023-07-07T07:05:57.288Z,60.44
2023-07-07T07:06:57.235Z,61.39
2023-07-07T07:07:57.213Z,59.07
2023-07-07T07:08:57.205Z,58.78
2023-07-07T07:09:57.191Z,61.61
2023-07-07T07:10:57.292Z,62.29
2023-07-07T07:11:57.181Z,61.00
2023-07-07T07:12:57.176Z,60.30
2023-07-07T07:13:57.184Z,59.46
2023-07-07T07:14:57.147Z,59.66
2023-07-07T07:15:57.179Z,60.78
2023-07-07T07:16:57.206Z,61.05
2023-07-07T07:17:57.170Z,65.06
2023-07-07T07:18:57.158Z,60.73
2023-07-07T07:19:57.118Z,62.00
2023-07-07T07:20:57.482Z,63.01
2023-07-07T07:21:57.123Z,62.36
2023-07-07T07:22:57.108Z,62.34
2023-07-07T07:23:57.121Z,61.97
2023-07-07T07:24:57.358Z,61.45
2023-07-07T07:25:57.120Z,61.34
2023-07-07T07:26:57.067Z,60.29
2023-07-07T07:27:57.057Z,61.97
2023-07-07T07:28:57.059Z,63.36
2023-07-07T07:29:57.082Z,60.85
2023-07-07T07:30:57.208Z,62.24
2023-07-07T07:31:57.064Z,62.63
2023-07-07T07:32:57.810Z,61.53
2023-07-07T07:33:57.014Z,62.10
2023-07-07T07:34:57.029Z,61.28
2023-07-07T07:35:57.002Z,61.35
2023-07-07T07:36:56.996Z,62.93
2023-07-07T07:37:57.007Z,62.14
2023-07-07T07:38:56.996Z,62.73
2023-07-07T07:39:56.975Z,60.48
2023-07-07T07:40:57.164Z,59.99
2023-07-07T07:41:56.966Z,61.90
2023-07-07T07:42:56.956Z,61.69
2023-07-07T07:43:56.941Z,59.02
2023-07-07T07:44:56.933Z,61.14
2023-07-07T07:45:56.953Z,61.41
2023-07-07T07:46:57.101Z,60.97
2023-07-07T07:47:56.971Z,62.69
2023-07-07T07:48:56.906Z,61.27
2023-07-07T07:49:56.918Z,62.91
2023-07-07T07:50:57.143Z,61.90
2023-07-07T07:51:56.890Z,61.97
2023-07-07T07:52:56.902Z,62.20
2023-07-07T07:53:56.896Z,63.18
2023-07-07T07:54:56.895Z,62.53
2023-07-07T07:55:56.871Z,63.51
2023-07-07T07:56:56.852Z,63.26
2023-07-07T07:57:56.864Z,64.91
2023-07-07T07:58:56.840Z,62.89
2023-07-07T07:59:56.823Z,61.90
2023-07-07T08:00:57.017Z,62.75
2023-07-07T08:01:56.896Z,61.83
2023-07-07T08:02:56.948Z,62.22
2023-07-07T08:03:56.915Z,62.64
2023-07-07T08:04:56.812Z,62.56
2023-07-07T08:05:56.790Z,61.42
2023-07-07T08:06:57.324Z,61.32
2023-07-07T08:07:56.771Z,61.18
2023-07-07T08:08:56.787Z,60.60
2023-07-07T08:09:56.764Z,59.29
2023-07-07T08:11:10.018Z,60.91
2023-07-07T08:11:59.369Z,61.09
2023-07-07T08:12:56.763Z,61.95
2023-07-07T08:13:56.743Z,61.96
2023-07-07T08:14:56.713Z,61.84
2023-07-07T08:15:56.805Z,63.57
2023-07-07T08:16:56.728Z,61.23
2023-07-07T08:17:56.863Z,61.97
2023-07-07T08:18:56.692Z,60.78
2023-07-07T08:19:56.681Z,63.70
2023-07-07T08:20:56.737Z,65.77
2023-07-07T08:21:56.669Z,63.88
2023-07-07T08:22:56.664Z,62.70
2023-07-07T08:23:56.645Z,62.13
2023-07-07T08:24:56.640Z,62.91
2023-07-07T08:26:57.638Z,62.33
2023-07-07T08:28:57.621Z,61.88
2023-07-07T08:29:56.621Z,60.77
2023-07-07T08:30:56.909Z,65.33
2023-07-07T08:31:56.593Z,65.00
2023-07-07T08:32:56.595Z,63.64
2023-07-07T08:34:00.850Z,61.77
2023-07-07T08:34:58.615Z,62.82
2023-07-07T08:35:56.739Z,62.45
2023-07-07T08:36:56.555Z,62.44
2023-07-07T08:37:56.547Z,63.08
2023-07-07T08:38:56.564Z,62.31
2023-07-07T08:39:56.548Z,64.58
2023-07-07T08:40:56.708Z,60.90
2023-07-07T08:41:56.558Z,61.61
2023-07-07T08:42:56.541Z,61.47
2023-07-07T08:43:56.514Z,61.50
2023-07-07T08:44:56.481Z,61.47
2023-07-07T08:45:58.463Z,60.97
2023-07-07T08:46:56.575Z,61.26
2023-07-07T08:47:56.541Z,64.02
2023-07-07T08:48:56.463Z,62.43
2023-07-07T08:49:57.345Z,62.87
2023-07-07T08:50:56.576Z,61.11
2023-07-07T08:51:57.771Z,65.20
2023-07-07T08:52:57.291Z,62.77
2023-07-07T08:54:57.416Z,61.78
2023-07-07T08:55:56.398Z,61.70
2023-07-07T08:56:56.391Z,61.86
2023-07-07T08:57:58.738Z,60.46
2023-07-07T08:58:57.413Z,63.25
2023-07-07T08:59:56.374Z,63.06
2023-07-07T09:00:56.664Z,63.55
2023-07-07T09:01:56.466Z,63.29
2023-07-07T09:02:56.470Z,64.77
2023-07-07T09:03:58.104Z,61.66
2023-07-07T09:04:56.460Z,64.84
2023-07-07T09:05:56.328Z,60.46
2023-07-07T09:06:56.317Z,63.88
2023-07-07T09:07:56.300Z,63.50
2023-07-07T09:08:56.318Z,61.40
2023-07-07T09:09:58.182Z,62.06
2023-07-07T09:10:56.446Z,59.74
2023-07-07T09:11:56.283Z,60.46
2023-07-07T09:12:56.274Z,62.30
2023-07-07T09:13:56.310Z,61.33
2023-07-07T09:14:56.287Z,58.18
2023-07-07T09:15:57.939Z,60.15
2023-07-07T09:16:57.913Z,64.60
2023-07-07T09:17:56.300Z,62.61
2023-07-07T09:18:56.235Z,63.78
2023-07-07T09:19:56.223Z,62.86
2023-07-07T09:20:57.181Z,63.78
2023-07-07T09:21:56.461Z,63.65
2023-07-07T09:22:56.202Z,61.48
2023-07-07T09:23:56.191Z,62.36
2023-07-07T09:24:56.819Z,62.70
2023-07-07T09:25:56.208Z,61.36
2023-07-07T09:26:56.201Z,62.04
2023-07-07T09:27:56.159Z,62.89
2023-07-07T09:28:56.144Z,63.58
2023-07-07T09:29:56.151Z,62.60
2023-07-07T09:30:56.195Z,62.85
2023-07-07T09:31:56.210Z,62.45
2023-07-07T09:32:56.146Z,61.78
2023-07-07T09:33:56.910Z,63.84
2023-07-07T09:34:56.114Z,64.35
2023-07-07T09:35:56.095Z,65.16
2023-07-07T09:36:56.103Z,63.47
2023-07-07T09:37:56.103Z,61.81
2023-07-07T09:38:56.096Z,62.74
2023-07-07T09:39:57.415Z,62.34
2023-07-07T09:40:56.294Z,65.11
2023-07-07T09:41:56.051Z,61.50
2023-07-07T09:42:56.037Z,63.31
2023-07-07T09:43:56.051Z,64.75
2023-07-07T09:44:56.022Z,60.31
2023-07-07T09:45:56.965Z,60.63
2023-07-07T09:46:56.084Z,62.05
2023-07-07T09:47:56.075Z,63.24
2023-07-07T09:48:56.066Z,61.98
2023-07-07T09:49:55.993Z,61.97
2023-07-07T09:50:56.163Z,64.15
2023-07-07T09:51:57.044Z,62.81
2023-07-07T09:52:55.964Z,63.59
2023-07-07T09:53:56.949Z,64.75
2023-07-07T09:54:55.949Z,65.27
2023-07-07T09:55:56.004Z,62.23
2023-07-07T09:56:55.943Z,63.65
2023-07-07T09:57:55.941Z,64.07
2023-07-07T09:58:55.932Z,62.62
2023-07-07T09:59:55.921Z,64.49
2023-07-07T10:00:55.930Z,63.91
2023-07-07T10:01:56.025Z,65.57
2023-07-07T10:02:55.926Z,66.32
2023-07-07T10:03:55.897Z,63.64
2023-07-07T10:04:55.873Z,62.93
2023-07-07T10:05:57.609Z,63.15
2023-07-07T10:06:55.889Z,64.18
2023-07-07T10:07:55.872Z,64.15
2023-07-07T10:08:55.838Z,62.48
2023-07-07T10:09:55.837Z,66.76
2023-07-07T10:10:55.838Z,66.70
2023-07-07T10:12:57.805Z,63.36
2023-07-07T10:13:55.825Z,61.95
2023-07-07T10:14:55.830Z,61.93
2023-07-07T10:15:55.943Z,63.60
2023-07-07T10:16:55.813Z,63.24
2023-07-07T10:17:57.598Z,64.02
2023-07-07T10:18:55.764Z,66.49
2023-07-07T10:19:55.763Z,62.76
2023-07-07T10:20:55.762Z,65.59
2023-07-07T10:21:55.745Z,63.09
2023-07-07T10:22:55.727Z,63.80
2023-07-07T10:23:55.725Z,61.12
2023-07-07T10:24:55.715Z,63.48
2023-07-07T10:25:55.744Z,62.93
2023-07-07T10:26:55.732Z,62.89
2023-07-07T10:27:55.682Z,68.30
2023-07-07T10:28:55.694Z,68.32
2023-07-07T10:29:55.693Z,66.51
2023-07-07T10:30:55.681Z,64.57
2023-07-07T10:31:55.731Z,63.47
2023-07-07T10:32:55.694Z,60.68
2023-07-07T10:33:55.679Z,61.65
2023-07-07T10:34:55.663Z,62.20
2023-07-07T10:35:55.643Z,64.16
2023-07-07T10:36:55.650Z,65.80
2023-07-07T10:37:55.616Z,63.05
2023-07-07T10:38:56.968Z,62.93
2023-07-07T10:39:56.642Z,62.76
2023-07-07T10:40:55.607Z,62.93
2023-07-07T10:41:55.590Z,63.87
2023-07-07T10:42:55.570Z,61.73
2023-07-07T10:43:56.470Z,61.83
2023-07-07T10:44:55.607Z,62.34
2023-07-07T10:45:55.620Z,62.37
2023-07-07T10:46:55.573Z,61.87
2023-07-07T10:47:55.645Z,61.34
2023-07-07T10:48:55.542Z,64.50
2023-07-07T10:49:55.553Z,62.22
2023-07-07T10:50:55.529Z,64.38
2023-07-07T10:51:56.045Z,63.77
2023-07-07T10:53:56.538Z,60.80
2023-07-07T10:54:55.501Z,63.73
2023-07-07T10:55:55.522Z,67.61
2023-07-07T10:56:55.553Z,65.28
2023-07-07T10:57:55.541Z,63.27
2023-07-07T10:58:55.499Z,62.90
2023-07-07T10:59:55.519Z,65.21
2023-07-07T11:00:55.539Z,66.99
2023-07-07T11:01:55.925Z,64.40
2023-07-07T11:02:55.813Z,66.62
2023-07-07T11:03:57.277Z,67.00
2023-07-07T11:04:57.565Z,63.69
2023-07-07T11:06:04.129Z,66.01
2023-07-07T11:06:57.471Z,62.94
2023-07-07T11:07:55.429Z,62.70
2023-07-07T11:08:56.413Z,60.83
2023-07-07T11:09:57.013Z,63.25
2023-07-07T11:10:55.415Z,64.26
2023-07-07T11:11:55.360Z,63.12
2023-07-07T11:12:55.398Z,62.50
2023-07-07T11:13:55.454Z,63.57
2023-07-07T11:14:55.352Z,63.22
2023-07-07T11:15:55.337Z,65.24
2023-07-07T11:16:55.386Z,65.32
2023-07-07T11:17:55.339Z,66.10
2023-07-07T11:18:55.280Z,65.01
2023-07-07T11:19:55.784Z,65.16
2023-07-07T11:20:57.214Z,65.97
2023-07-07T11:21:55.262Z,67.37
2023-07-07T11:22:56.291Z,63.60
2023-07-07T11:23:55.249Z,63.86
2023-07-07T11:24:57.227Z,60.22
2023-07-07T11:25:56.234Z,61.47
2023-07-07T11:26:55.233Z,63.39
2023-07-07T11:27:55.291Z,61.43
2023-07-07T11:28:55.249Z,60.86
2023-07-07T11:29:55.248Z,61.66
2023-07-07T11:30:55.231Z,64.83
2023-07-07T11:31:55.264Z,64.60
2023-07-07T11:32:55.222Z,63.79
2023-07-07T11:33:55.173Z,63.03
2023-07-07T11:34:55.170Z,62.75
2023-07-07T11:35:55.157Z,63.91
2023-07-07T11:36:55.186Z,61.87
2023-07-07T11:37:55.144Z,61.84
2023-07-07T11:38:55.151Z,61.58
2023-07-07T11:39:55.133Z,61.58
2023-07-07T11:40:55.141Z,62.83
2023-07-07T11:41:55.123Z,65.26
2023-07-07T11:42:55.121Z,63.90
2023-07-07T11:43:55.127Z,66.44
2023-07-07T11:44:55.118Z,62.09
2023-07-07T11:45:55.082Z,61.82
2023-07-07T11:46:55.124Z,64.09
2023-07-07T11:47:55.131Z,63.05
2023-07-07T11:48:55.057Z,64.21
2023-07-07T11:49:55.044Z,65.01
2023-07-07T11:50:55.178Z,68.39
2023-07-07T11:51:55.899Z,62.24
2023-07-07T11:52:55.021Z,64.39
2023-07-07T11:53:55.021Z,64.90
2023-07-07T11:54:55.051Z,67.59
2023-07-07T11:55:55.065Z,66.72
2023-07-07T11:56:55.029Z,66.71
2023-07-07T11:57:55.010Z,67.47
2023-07-07T11:58:54.991Z,66.93
2023-07-07T11:59:54.986Z,66.29
2023-07-07T12:00:54.975Z,66.47
2023-07-07T12:01:54.995Z,63.99
2023-07-07T12:02:55.081Z,65.61
2023-07-07T12:03:55.100Z,63.70
2023-07-07T12:04:55.183Z,63.57
2023-07-07T12:05:56.005Z,61.67
2023-07-07T12:06:54.930Z,62.56
2023-07-07T12:07:54.936Z,64.15
2023-07-07T12:08:54.903Z,64.06
2023-07-07T12:09:54.890Z,62.46
2023-07-07T12:10:54.934Z,62.34
2023-07-07T12:11:54.872Z,62.22
2023-07-07T12:12:54.883Z,62.88
2023-07-07T12:13:55.516Z,62.38
2023-07-07T12:14:54.873Z,59.23
2023-07-07T12:15:54.968Z,64.11
2023-07-07T12:16:54.870Z,62.32
2023-07-07T12:17:54.863Z,63.85
2023-07-07T12:18:54.844Z,61.73
2023-07-07T12:19:55.487Z,63.07
2023-07-07T12:20:54.810Z,65.42
2023-07-07T12:21:54.812Z,62.56
2023-07-07T12:22:54.788Z,64.61
2023-07-07T12:23:54.792Z,60.16
2023-07-07T12:24:54.810Z,62.08
2023-07-07T12:25:54.797Z,60.70
2023-07-07T12:26:54.780Z,66.61
2023-07-07T21:20:07.398Z,63.76
2023-07-07T21:21:07.383Z,61.78
2023-07-07T21:22:08.474Z,62.05
2023-07-07T21:23:08.480Z,62.24
2023-07-07T21:24:08.478Z,60.50
2023-07-07T21:25:08.704Z,61.99
2023-07-07T21:26:08.445Z,61.07
2023-07-07T21:27:08.430Z,59.57
2023-07-07T21:28:08.429Z,59.79
2023-07-07T21:29:08.409Z,56.94
2023-07-07T21:30:08.398Z,55.21
2023-07-07T21:31:08.413Z,59.73
2023-07-07T21:32:08.384Z,63.41
2023-07-07T21:33:08.473Z,58.45
2023-07-07T21:34:08.365Z,60.46
2023-07-07T21:35:10.045Z,60.09
2023-07-07T21:36:08.355Z,62.70
2023-07-07T21:37:08.337Z,59.31
2023-07-07T21:38:08.328Z,57.36
2023-07-07T21:39:08.321Z,56.82
2023-07-07T21:40:08.324Z,58.10
2023-07-07T21:41:08.309Z,61.49
2023-07-07T21:42:12.396Z,60.97
2023-07-07T21:43:09.280Z,60.62
2023-07-07T21:44:09.304Z,57.76
2023-07-07T21:45:08.274Z,58.92
2023-07-07T21:46:08.285Z,55.57
2023-07-07T21:47:08.251Z,61.14
2023-07-07T21:48:08.252Z,57.51
2023-07-07T21:49:08.242Z,59.07
2023-07-07T21:50:08.239Z,60.84
2023-07-07T21:51:08.234Z,59.79